CMP493 MPTO-SPJC
Flight info
| Callsign | CMP493 |
|---|---|
| Flight time | 2h 56m |
| Altitude | 18000 |
| Route | EGETA3B EGETA V11 TBG/N0459F370 UM674 ROBIG/N0454F380 UM674 ATATU |
| Aircraft | B738/M-SDE2E3FGHIRWXY/LB1 |
Departure
| Time | 2026-04-26 23:43 |
|---|---|
| Airport | Tocumen International Airport (MPTO) |
Arrival
| Time | 2026-04-27 02:40 |
|---|---|
| Airport | Jorge Chávez International Airport (SPJC) |
| Time | Latitude | Longitude | Altitude | Speed | Heading |
|---|---|---|---|---|---|
| 2026-04-26 22:37 | 9.07084 | -79.38475 | 30 ft | 0 kts | 313° |
| 2026-04-26 23:36 | 9.07080 | -79.38470 | 30 ft | 2 kts | 314° |
| 2026-04-26 23:36 | 9.07068 | -79.38458 | 30 ft | 2 kts | 317° |
| 2026-04-26 23:37 | 9.07055 | -79.38447 | 28 ft | 2 kts | 323° |
| 2026-04-26 23:37 | 9.07041 | -79.38438 | 29 ft | 2 kts | 334° |
| 2026-04-26 23:37 | 9.07026 | -79.38433 | 28 ft | 2 kts | 359° |
| 2026-04-26 23:37 | 9.07010 | -79.38436 | 29 ft | 2 kts | 26° |
| 2026-04-26 23:38 | 9.07003 | -79.38439 | 28 ft | 0 kts | 29° |
| 2026-04-26 23:40 | 9.07004 | -79.38439 | 29 ft | 1 kts | 29° |
| 2026-04-26 23:40 | 9.07022 | -79.38429 | 29 ft | 4 kts | 27° |
| 2026-04-26 23:40 | 9.07052 | -79.38414 | 29 ft | 5 kts | 28° |
| 2026-04-26 23:40 | 9.07086 | -79.38395 | 29 ft | 6 kts | 29° |
| 2026-04-26 23:41 | 9.07129 | -79.38390 | 29 ft | 7 kts | 338° |
| 2026-04-26 23:41 | 9.07164 | -79.38432 | 30 ft | 9 kts | 301° |
| 2026-04-26 23:41 | 9.07202 | -79.38496 | 30 ft | 12 kts | 300° |
| 2026-04-26 23:41 | 9.07247 | -79.38576 | 33 ft | 14 kts | 292° |
| 2026-04-26 23:42 | 9.07275 | -79.38669 | 43 ft | 13 kts | 292° |
| 2026-04-26 23:42 | 9.07557 | -79.38565 | 48 ft | 67 kts | 30° |
| 2026-04-26 23:42 | 9.08162 | -79.38202 | 45 ft | 133 kts | 32° |
| 2026-04-26 23:43 | 9.08755 | -79.37846 | 111 ft | 162 kts | 31° |
| 2026-04-26 23:43 | 9.10081 | -79.37030 | 922 ft | 175 kts | 22° |
| 2026-04-26 23:43 | 9.10887 | -79.36947 | 1314 ft | 177 kts | 346° |
| 2026-04-26 23:43 | 9.11986 | -79.37500 | 1914 ft | 187 kts | 324° |
| 2026-04-26 23:44 | 9.12865 | -79.38568 | 2102 ft | 211 kts | 291° |
| 2026-04-26 23:44 | 9.12864 | -79.40604 | 2313 ft | 237 kts | 249° |
| 2026-04-26 23:44 | 9.12271 | -79.41592 | 2406 ft | 252 kts | 226° |
| 2026-04-26 23:44 | 9.10760 | -79.42568 | 2758 ft | 266 kts | 201° |
| 2026-04-26 23:45 | 9.09011 | -79.43239 | 3316 ft | 272 kts | 201° |
| 2026-04-26 23:45 | 9.07251 | -79.43948 | 3977 ft | 273 kts | 202° |
| 2026-04-26 23:45 | 9.05484 | -79.44676 | 4616 ft | 276 kts | 202° |
| 2026-04-26 23:45 | 9.03694 | -79.45428 | 5242 ft | 279 kts | 203° |
| 2026-04-26 23:46 | 9.01917 | -79.46184 | 5865 ft | 281 kts | 203° |
| 2026-04-26 23:46 | 9.00106 | -79.46960 | 6506 ft | 285 kts | 203° |
| 2026-04-26 23:46 | 8.98274 | -79.47750 | 7119 ft | 287 kts | 203° |
| 2026-04-26 23:46 | 8.96429 | -79.48549 | 7760 ft | 290 kts | 203° |
| 2026-04-26 23:47 | 8.94569 | -79.49355 | 8415 ft | 292 kts | 204° |
| 2026-04-26 23:47 | 8.92691 | -79.50169 | 9081 ft | 295 kts | 204° |
| 2026-04-26 23:47 | 8.90792 | -79.50994 | 9737 ft | 299 kts | 204° |
| 2026-04-26 23:47 | 8.88867 | -79.51830 | 10237 ft | 308 kts | 204° |
| 2026-04-26 23:48 | 8.86817 | -79.52721 | 10383 ft | 330 kts | 204° |
| 2026-04-26 23:48 | 8.84642 | -79.53665 | 10530 ft | 349 kts | 204° |
| 2026-04-26 23:48 | 8.82367 | -79.54651 | 10880 ft | 359 kts | 204° |
| 2026-04-26 23:48 | 8.80021 | -79.55536 | 11450 ft | 362 kts | 195° |
| 2026-04-26 23:49 | 8.77560 | -79.55932 | 12068 ft | 365 kts | 184° |
| 2026-04-26 23:49 | 8.75008 | -79.55843 | 12657 ft | 368 kts | 174° |
| 2026-04-26 23:49 | 8.72451 | -79.55523 | 13229 ft | 372 kts | 173° |
| 2026-04-26 23:49 | 8.69865 | -79.55192 | 13775 ft | 376 kts | 173° |
| 2026-04-26 23:50 | 8.67257 | -79.54862 | 14307 ft | 379 kts | 173° |
| 2026-04-26 23:50 | 8.64631 | -79.54536 | 14870 ft | 381 kts | 173° |
| 2026-04-26 23:50 | 8.61988 | -79.54213 | 15419 ft | 384 kts | 173° |
| 2026-04-26 23:50 | 8.59324 | -79.53891 | 15955 ft | 387 kts | 173° |
| 2026-04-26 23:51 | 8.56629 | -79.53569 | 16486 ft | 390 kts | 173° |
| 2026-04-26 23:51 | 8.53911 | -79.53246 | 17017 ft | 393 kts | 173° |
| 2026-04-26 23:51 | 8.51216 | -79.52926 | 17523 ft | 396 kts | 173° |
| 2026-04-26 23:51 | 8.48463 | -79.52600 | 18044 ft | 399 kts | 173° |
| 2026-04-26 23:52 | 8.45687 | -79.52271 | 18475 ft | 402 kts | 173° |
| 2026-04-26 23:52 | 8.42894 | -79.51940 | 18913 ft | 405 kts | 173° |
| 2026-04-26 23:52 | 8.40090 | -79.51608 | 19365 ft | 407 kts | 173° |
| 2026-04-26 23:52 | 8.37272 | -79.51275 | 19804 ft | 409 kts | 173° |
| 2026-04-26 23:53 | 8.34443 | -79.50940 | 20221 ft | 411 kts | 173° |
| 2026-04-26 23:53 | 8.31592 | -79.50602 | 20658 ft | 413 kts | 173° |
| 2026-04-26 23:53 | 8.28721 | -79.50262 | 21068 ft | 416 kts | 173° |
| 2026-04-26 23:53 | 8.25831 | -79.49920 | 21475 ft | 418 kts | 173° |
| 2026-04-26 23:54 | 8.22936 | -79.49578 | 21884 ft | 420 kts | 173° |
| 2026-04-26 23:54 | 8.20051 | -79.49236 | 22290 ft | 422 kts | 173° |
| 2026-04-26 23:54 | 8.17121 | -79.48890 | 22679 ft | 425 kts | 173° |
| 2026-04-26 23:54 | 8.14178 | -79.48541 | 23057 ft | 427 kts | 173° |
| 2026-04-26 23:55 | 8.11224 | -79.48192 | 23424 ft | 429 kts | 173° |
| 2026-04-26 23:55 | 8.08248 | -79.47840 | 23750 ft | 431 kts | 173° |
| 2026-04-26 23:55 | 8.05269 | -79.47487 | 24092 ft | 431 kts | 173° |
| 2026-04-26 23:55 | 8.02284 | -79.47135 | 24436 ft | 432 kts | 173° |
| 2026-04-26 23:56 | 7.99288 | -79.46780 | 24764 ft | 433 kts | 173° |
| 2026-04-26 23:56 | 7.96285 | -79.46425 | 25067 ft | 435 kts | 173° |
| 2026-04-26 23:56 | 7.93270 | -79.46069 | 25362 ft | 437 kts | 173° |
| 2026-04-26 23:56 | 7.90281 | -79.45715 | 25661 ft | 438 kts | 173° |
| 2026-04-26 23:57 | 7.87251 | -79.45357 | 25975 ft | 439 kts | 173° |
| 2026-04-26 23:57 | 7.84171 | -79.44993 | 26279 ft | 440 kts | 173° |
| 2026-04-26 23:57 | 7.81159 | -79.44638 | 26569 ft | 442 kts | 173° |
| 2026-04-26 23:57 | 7.78100 | -79.44276 | 26855 ft | 443 kts | 173° |
| 2026-04-26 23:58 | 7.75034 | -79.43914 | 27134 ft | 445 kts | 173° |
| 2026-04-26 23:58 | 7.71955 | -79.43550 | 27412 ft | 446 kts | 173° |
| 2026-04-26 23:58 | 7.68865 | -79.43186 | 27689 ft | 447 kts | 173° |
| 2026-04-26 23:58 | 7.65767 | -79.42820 | 27956 ft | 448 kts | 173° |
| 2026-04-26 23:59 | 7.62661 | -79.42453 | 28218 ft | 450 kts | 173° |
| 2026-04-26 23:59 | 7.59546 | -79.42086 | 28484 ft | 451 kts | 173° |
| 2026-04-26 23:59 | 7.56423 | -79.41717 | 28732 ft | 452 kts | 173° |
| 2026-04-26 23:59 | 7.53287 | -79.41347 | 28976 ft | 454 kts | 173° |
| 2026-04-27 00:00 | 7.50142 | -79.40976 | 29216 ft | 455 kts | 173° |
| 2026-04-27 00:00 | 7.47031 | -79.40609 | 29454 ft | 456 kts | 173° |
| 2026-04-27 00:00 | 7.43873 | -79.40236 | 29689 ft | 457 kts | 173° |
| 2026-04-27 00:00 | 7.40714 | -79.39864 | 29911 ft | 458 kts | 173° |
| 2026-04-27 00:01 | 7.37540 | -79.39489 | 30098 ft | 460 kts | 173° |
| 2026-04-27 00:01 | 7.34352 | -79.39113 | 30307 ft | 460 kts | 173° |
| 2026-04-27 00:01 | 7.31180 | -79.38740 | 30575 ft | 459 kts | 173° |
| 2026-04-27 00:01 | 7.28013 | -79.38366 | 30886 ft | 457 kts | 173° |
| 2026-04-27 00:02 | 7.24861 | -79.37993 | 31167 ft | 456 kts | 173° |
| 2026-04-27 00:02 | 7.21705 | -79.37618 | 31407 ft | 456 kts | 173° |
| 2026-04-27 00:02 | 7.18553 | -79.37244 | 31667 ft | 456 kts | 173° |
| 2026-04-27 00:02 | 7.15407 | -79.36870 | 31935 ft | 455 kts | 173° |
| 2026-04-27 00:03 | 7.12258 | -79.36496 | 32223 ft | 454 kts | 173° |
| 2026-04-27 00:03 | 7.09159 | -79.36128 | 32493 ft | 454 kts | 173° |
| 2026-04-27 00:03 | 7.06024 | -79.35756 | 32757 ft | 453 kts | 173° |
| 2026-04-27 00:03 | 7.02894 | -79.35385 | 33034 ft | 453 kts | 173° |
| 2026-04-27 00:04 | 6.99762 | -79.35014 | 33321 ft | 452 kts | 173° |
| 2026-04-27 00:04 | 6.96640 | -79.34644 | 33588 ft | 452 kts | 173° |
| 2026-04-27 00:04 | 6.93517 | -79.34274 | 33842 ft | 451 kts | 173° |
| 2026-04-27 00:04 | 6.90403 | -79.33904 | 34081 ft | 451 kts | 174° |
| 2026-04-27 00:05 | 6.87288 | -79.33535 | 34271 ft | 451 kts | 174° |
| 2026-04-27 00:05 | 6.84154 | -79.33164 | 34452 ft | 452 kts | 174° |
| 2026-04-27 00:05 | 6.81029 | -79.32794 | 34659 ft | 452 kts | 174° |
| 2026-04-27 00:05 | 6.77898 | -79.32423 | 34871 ft | 452 kts | 174° |
| 2026-04-27 00:06 | 6.74811 | -79.32057 | 35051 ft | 453 kts | 174° |
| 2026-04-27 00:06 | 6.71679 | -79.31686 | 35238 ft | 453 kts | 174° |
| 2026-04-27 00:06 | 6.68541 | -79.31315 | 35441 ft | 453 kts | 174° |
| 2026-04-27 00:06 | 6.65401 | -79.30943 | 35635 ft | 453 kts | 174° |
| 2026-04-27 00:07 | 6.62256 | -79.30571 | 35819 ft | 453 kts | 174° |
| 2026-04-27 00:07 | 6.59115 | -79.30199 | 36001 ft | 454 kts | 174° |
| 2026-04-27 00:07 | 6.56019 | -79.29832 | 36174 ft | 454 kts | 174° |
| 2026-04-27 00:07 | 6.52875 | -79.29460 | 36356 ft | 454 kts | 174° |
| 2026-04-27 00:08 | 6.49732 | -79.29088 | 36527 ft | 455 kts | 175° |
| 2026-04-27 00:08 | 6.46590 | -79.28717 | 36717 ft | 454 kts | 175° |
| 2026-04-27 00:08 | 6.43446 | -79.28345 | 36873 ft | 455 kts | 175° |
| 2026-04-27 00:08 | 6.40287 | -79.27971 | 36880 ft | 458 kts | 175° |
| 2026-04-27 00:09 | 6.33956 | -79.27222 | 36888 ft | 457 kts | 175° |
| 2026-04-27 00:09 | 6.27662 | -79.26478 | 36892 ft | 454 kts | 175° |
| 2026-04-27 00:10 | 6.21393 | -79.25736 | 36897 ft | 452 kts | 175° |
| 2026-04-27 00:10 | 6.15146 | -79.24998 | 36895 ft | 451 kts | 175° |
| 2026-04-27 00:11 | 6.08952 | -79.24267 | 36896 ft | 451 kts | 175° |
| 2026-04-27 00:11 | 6.02711 | -79.23529 | 36897 ft | 452 kts | 175° |
| 2026-04-27 00:12 | 5.96451 | -79.22790 | 36902 ft | 453 kts | 175° |
| 2026-04-27 00:12 | 5.90168 | -79.22052 | 36900 ft | 455 kts | 175° |
| 2026-04-27 00:13 | 5.83894 | -79.21324 | 36901 ft | 457 kts | 175° |
| 2026-04-27 00:13 | 5.77545 | -79.20588 | 36900 ft | 459 kts | 175° |
| 2026-04-27 00:14 | 5.71189 | -79.19850 | 36900 ft | 461 kts | 175° |
| 2026-04-27 00:14 | 5.64808 | -79.19103 | 36900 ft | 462 kts | 175° |
| 2026-04-27 00:15 | 5.58424 | -79.18355 | 36900 ft | 462 kts | 175° |
| 2026-04-27 00:15 | 5.52028 | -79.17605 | 36899 ft | 462 kts | 175° |
| 2026-04-27 00:16 | 5.45647 | -79.16858 | 36899 ft | 462 kts | 175° |
| 2026-04-27 00:16 | 5.39298 | -79.16114 | 36903 ft | 461 kts | 175° |
| 2026-04-27 00:17 | 5.32922 | -79.15368 | 36897 ft | 460 kts | 175° |
| 2026-04-27 00:17 | 5.26557 | -79.14623 | 36898 ft | 460 kts | 175° |
| 2026-04-27 00:18 | 5.20203 | -79.13879 | 36897 ft | 459 kts | 175° |
| 2026-04-27 00:18 | 5.13893 | -79.13141 | 36904 ft | 458 kts | 175° |
| 2026-04-27 00:19 | 5.07552 | -79.12400 | 36902 ft | 458 kts | 175° |
| 2026-04-27 00:19 | 5.01210 | -79.11658 | 36901 ft | 458 kts | 175° |
| 2026-04-27 00:20 | 4.94865 | -79.10916 | 36907 ft | 459 kts | 175° |
| 2026-04-27 00:20 | 4.88513 | -79.10174 | 36901 ft | 459 kts | 175° |
| 2026-04-27 00:21 | 4.82201 | -79.09436 | 36905 ft | 460 kts | 175° |
| 2026-04-27 00:21 | 4.75829 | -79.08692 | 36904 ft | 461 kts | 175° |
| 2026-04-27 00:22 | 4.69445 | -79.07946 | 36899 ft | 462 kts | 175° |
| 2026-04-27 00:22 | 4.63050 | -79.07199 | 36903 ft | 462 kts | 175° |
| 2026-04-27 00:23 | 4.56657 | -79.06453 | 36902 ft | 463 kts | 175° |
| 2026-04-27 00:23 | 4.50285 | -79.05709 | 36898 ft | 464 kts | 175° |
| 2026-04-27 00:24 | 4.43867 | -79.04959 | 36904 ft | 464 kts | 175° |
| 2026-04-27 00:24 | 4.37441 | -79.04209 | 36899 ft | 464 kts | 175° |
| 2026-04-27 00:25 | 4.31013 | -79.03459 | 36902 ft | 465 kts | 175° |
| 2026-04-27 00:25 | 4.24588 | -79.02709 | 36901 ft | 465 kts | 175° |
| 2026-04-27 00:26 | 4.18149 | -79.01959 | 36910 ft | 471 kts | 175° |
| 2026-04-27 00:26 | 4.11589 | -79.01194 | 36914 ft | 477 kts | 175° |
| 2026-04-27 00:27 | 4.04965 | -79.00422 | 36908 ft | 480 kts | 175° |
| 2026-04-27 00:27 | 3.98309 | -78.99645 | 36903 ft | 482 kts | 175° |
| 2026-04-27 00:28 | 3.91674 | -78.98871 | 36903 ft | 483 kts | 175° |
| 2026-04-27 00:28 | 3.84988 | -78.98092 | 36906 ft | 483 kts | 175° |
| 2026-04-27 00:29 | 3.79444 | -78.97445 | 36906 ft | 483 kts | 175° |
| 2026-04-27 00:29 | 3.72780 | -78.96669 | 36904 ft | 482 kts | 175° |
| 2026-04-27 00:30 | 3.66126 | -78.95893 | 36906 ft | 481 kts | 175° |
| 2026-04-27 00:30 | 3.59482 | -78.95119 | 36908 ft | 480 kts | 175° |
| 2026-04-27 00:31 | 3.52831 | -78.94345 | 36909 ft | 480 kts | 175° |
| 2026-04-27 00:31 | 3.46203 | -78.93573 | 36911 ft | 479 kts | 175° |
| 2026-04-27 00:32 | 3.39571 | -78.92801 | 36907 ft | 479 kts | 175° |
| 2026-04-27 00:32 | 3.32995 | -78.92035 | 36906 ft | 478 kts | 175° |
| 2026-04-27 00:33 | 3.26375 | -78.91264 | 36905 ft | 478 kts | 175° |
| 2026-04-27 00:33 | 3.19761 | -78.90495 | 36905 ft | 478 kts | 175° |
| 2026-04-27 00:34 | 3.13148 | -78.89725 | 36908 ft | 478 kts | 175° |
| 2026-04-27 00:34 | 3.06535 | -78.88955 | 36910 ft | 478 kts | 175° |
| 2026-04-27 00:35 | 2.99926 | -78.88186 | 36906 ft | 478 kts | 175° |
| 2026-04-27 00:35 | 2.93315 | -78.87417 | 36910 ft | 478 kts | 175° |
| 2026-04-27 00:36 | 2.86729 | -78.86651 | 36905 ft | 478 kts | 175° |
| 2026-04-27 00:36 | 2.80118 | -78.85882 | 36906 ft | 479 kts | 175° |
| 2026-04-27 00:37 | 2.73498 | -78.85112 | 36906 ft | 479 kts | 175° |
| 2026-04-27 00:37 | 2.66872 | -78.84342 | 36911 ft | 479 kts | 175° |
| 2026-04-27 00:38 | 2.60254 | -78.83572 | 36900 ft | 479 kts | 175° |
| 2026-04-27 00:38 | 2.53637 | -78.82803 | 36907 ft | 479 kts | 175° |
| 2026-04-27 00:39 | 2.47011 | -78.82033 | 36903 ft | 479 kts | 175° |
| 2026-04-27 00:39 | 2.40387 | -78.81263 | 36911 ft | 479 kts | 175° |
| 2026-04-27 00:40 | 2.33801 | -78.80497 | 36911 ft | 479 kts | 175° |
| 2026-04-27 00:40 | 2.27172 | -78.79727 | 36905 ft | 479 kts | 175° |
| 2026-04-27 00:41 | 2.20543 | -78.78957 | 36904 ft | 479 kts | 175° |
| 2026-04-27 00:41 | 2.13920 | -78.78187 | 36906 ft | 479 kts | 175° |
| 2026-04-27 00:42 | 2.07331 | -78.77422 | 36899 ft | 479 kts | 175° |
| 2026-04-27 00:42 | 2.00688 | -78.76650 | 36894 ft | 479 kts | 175° |
| 2026-04-27 00:43 | 1.94065 | -78.75880 | 36888 ft | 479 kts | 175° |
| 2026-04-27 00:43 | 1.87447 | -78.75112 | 36883 ft | 479 kts | 175° |
| 2026-04-27 00:44 | 1.80862 | -78.74347 | 36883 ft | 479 kts | 175° |
| 2026-04-27 00:44 | 1.74236 | -78.73577 | 36887 ft | 479 kts | 175° |
| 2026-04-27 00:45 | 1.67617 | -78.72809 | 36896 ft | 479 kts | 175° |
| 2026-04-27 00:45 | 1.60996 | -78.72040 | 36911 ft | 479 kts | 174° |
| 2026-04-27 00:46 | 1.54405 | -78.71274 | 36922 ft | 479 kts | 175° |
| 2026-04-27 00:46 | 1.47785 | -78.70506 | 36942 ft | 479 kts | 175° |
| 2026-04-27 00:47 | 1.41168 | -78.69737 | 36963 ft | 479 kts | 174° |
| 2026-04-27 00:47 | 1.34549 | -78.68969 | 36966 ft | 479 kts | 175° |
| 2026-04-27 00:48 | 1.27933 | -78.68160 | 36982 ft | 479 kts | 174° |
| 2026-04-27 00:48 | 1.21323 | -78.67290 | 36995 ft | 479 kts | 174° |
| 2026-04-27 00:49 | 1.14726 | -78.66421 | 37002 ft | 478 kts | 174° |
| 2026-04-27 00:49 | 1.08122 | -78.65561 | 37019 ft | 478 kts | 174° |
| 2026-04-27 00:50 | 0.98222 | -78.64278 | 37034 ft | 478 kts | 174° |
| 2026-04-27 00:51 | 0.91634 | -78.63424 | 37048 ft | 477 kts | 174° |
| 2026-04-27 00:51 | 0.85040 | -78.62569 | 37068 ft | 477 kts | 173° |
| 2026-04-27 00:52 | 0.78499 | -78.61721 | 37090 ft | 477 kts | 173° |
| 2026-04-27 00:52 | 0.71910 | -78.60867 | 37105 ft | 477 kts | 173° |
| 2026-04-27 00:53 | 0.65323 | -78.60013 | 37122 ft | 477 kts | 173° |
| 2026-04-27 00:53 | 0.58735 | -78.59159 | 37146 ft | 477 kts | 173° |
| 2026-04-27 00:54 | 0.52149 | -78.58305 | 37163 ft | 477 kts | 173° |
| 2026-04-27 00:54 | 0.45590 | -78.57457 | 37169 ft | 477 kts | 173° |
| 2026-04-27 00:55 | 0.38997 | -78.56609 | 37190 ft | 477 kts | 173° |
| 2026-04-27 00:55 | 0.32411 | -78.55762 | 37202 ft | 477 kts | 173° |
| 2026-04-27 00:56 | 0.25812 | -78.54913 | 37211 ft | 478 kts | 173° |
| 2026-04-27 00:56 | 0.19253 | -78.54069 | 37226 ft | 478 kts | 173° |
| 2026-04-27 00:57 | 0.12656 | -78.53219 | 37270 ft | 478 kts | 173° |
| 2026-04-27 00:57 | 0.06063 | -78.52370 | 37304 ft | 478 kts | 173° |
| 2026-04-27 00:58 | -0.00534 | -78.51521 | 37324 ft | 478 kts | 173° |
| 2026-04-27 00:58 | -0.07150 | -78.50799 | 37328 ft | 478 kts | 177° |
| 2026-04-27 00:59 | -0.13796 | -78.50497 | 37343 ft | 478 kts | 179° |
| 2026-04-27 00:59 | -0.20449 | -78.50258 | 37335 ft | 478 kts | 178° |
| 2026-04-27 01:00 | -0.27057 | -78.49971 | 37337 ft | 478 kts | 178° |
| 2026-04-27 01:00 | -0.33710 | -78.49651 | 37328 ft | 479 kts | 178° |
| 2026-04-27 01:01 | -0.40370 | -78.49323 | 37334 ft | 479 kts | 178° |
| 2026-04-27 01:01 | -0.47029 | -78.48997 | 37336 ft | 479 kts | 178° |
| 2026-04-27 01:02 | -0.53704 | -78.48672 | 37343 ft | 480 kts | 178° |
| 2026-04-27 01:02 | -0.60382 | -78.48347 | 37375 ft | 480 kts | 178° |
| 2026-04-27 01:03 | -0.67053 | -78.48022 | 37411 ft | 480 kts | 178° |
| 2026-04-27 01:03 | -0.73691 | -78.47699 | 37427 ft | 481 kts | 178° |
| 2026-04-27 01:04 | -0.80380 | -78.47374 | 37449 ft | 481 kts | 178° |
| 2026-04-27 01:04 | -0.87050 | -78.47049 | 37451 ft | 481 kts | 178° |
| 2026-04-27 01:05 | -0.93733 | -78.46723 | 37449 ft | 481 kts | 178° |
| 2026-04-27 01:05 | -1.00423 | -78.46398 | 37446 ft | 481 kts | 178° |
| 2026-04-27 01:06 | -1.07106 | -78.46073 | 37418 ft | 481 kts | 178° |
| 2026-04-27 01:06 | -1.13791 | -78.45747 | 37375 ft | 481 kts | 178° |
| 2026-04-27 01:07 | -1.20477 | -78.45418 | 37290 ft | 481 kts | 178° |
| 2026-04-27 01:07 | -1.27168 | -78.45088 | 37242 ft | 481 kts | 178° |
| 2026-04-27 01:08 | -1.33853 | -78.44760 | 37222 ft | 481 kts | 178° |
| 2026-04-27 01:08 | -1.40535 | -78.44434 | 37202 ft | 480 kts | 178° |
| 2026-04-27 01:09 | -1.47170 | -78.44106 | 37169 ft | 480 kts | 178° |
| 2026-04-27 01:09 | -1.53845 | -78.43774 | 37161 ft | 480 kts | 178° |
| 2026-04-27 01:10 | -1.60526 | -78.43443 | 37142 ft | 480 kts | 178° |
| 2026-04-27 01:10 | -1.67200 | -78.43114 | 37139 ft | 480 kts | 178° |
| 2026-04-27 01:11 | -1.73876 | -78.42785 | 37128 ft | 480 kts | 178° |
| 2026-04-27 01:11 | -1.80560 | -78.42456 | 37134 ft | 480 kts | 178° |
| 2026-04-27 01:12 | -1.87243 | -78.42126 | 37127 ft | 480 kts | 178° |
| 2026-04-27 01:12 | -1.93923 | -78.41796 | 37132 ft | 480 kts | 178° |
| 2026-04-27 01:13 | -2.00560 | -78.41469 | 37131 ft | 481 kts | 178° |
| 2026-04-27 01:13 | -2.07244 | -78.41140 | 37132 ft | 481 kts | 178° |
| 2026-04-27 01:14 | -2.13935 | -78.40810 | 37132 ft | 481 kts | 178° |
| 2026-04-27 01:14 | -2.20625 | -78.40480 | 37130 ft | 480 kts | 178° |
| 2026-04-27 01:15 | -2.26174 | -78.40208 | 37140 ft | 480 kts | 178° |
| 2026-04-27 01:15 | -2.32859 | -78.39877 | 37139 ft | 480 kts | 178° |
| 2026-04-27 01:16 | -2.39551 | -78.39546 | 37148 ft | 481 kts | 178° |
| 2026-04-27 01:16 | -2.46252 | -78.39215 | 37147 ft | 482 kts | 178° |
| 2026-04-27 01:17 | -2.52945 | -78.38885 | 37149 ft | 482 kts | 178° |
| 2026-04-27 01:17 | -2.59655 | -78.38554 | 37150 ft | 482 kts | 178° |
| 2026-04-27 01:18 | -2.66358 | -78.38223 | 37145 ft | 482 kts | 178° |
| 2026-04-27 01:18 | -2.73021 | -78.37895 | 37143 ft | 482 kts | 178° |
| 2026-04-27 01:19 | -2.79714 | -78.37564 | 37144 ft | 482 kts | 178° |
| 2026-04-27 01:19 | -2.86409 | -78.37233 | 37148 ft | 482 kts | 178° |
| 2026-04-27 01:20 | -2.93119 | -78.36901 | 37141 ft | 482 kts | 178° |
| 2026-04-27 01:20 | -2.99832 | -78.36570 | 37140 ft | 482 kts | 178° |
| 2026-04-27 01:21 | -3.06507 | -78.36240 | 37139 ft | 482 kts | 178° |
| 2026-04-27 01:21 | -3.13214 | -78.35909 | 37146 ft | 483 kts | 178° |
| 2026-04-27 01:22 | -3.19926 | -78.35577 | 37140 ft | 483 kts | 178° |
| 2026-04-27 01:22 | -3.26653 | -78.35244 | 37136 ft | 484 kts | 178° |
| 2026-04-27 01:23 | -3.33395 | -78.34911 | 37127 ft | 485 kts | 178° |
| 2026-04-27 01:23 | -3.40096 | -78.34580 | 37114 ft | 485 kts | 178° |
| 2026-04-27 01:24 | -3.46833 | -78.34247 | 37106 ft | 484 kts | 178° |
| 2026-04-27 01:24 | -3.53573 | -78.33915 | 37088 ft | 484 kts | 178° |
| 2026-04-27 01:25 | -3.60311 | -78.33588 | 37080 ft | 484 kts | 178° |
| 2026-04-27 01:25 | -3.67046 | -78.33262 | 37070 ft | 484 kts | 178° |
| 2026-04-27 01:26 | -3.73740 | -78.32936 | 37062 ft | 484 kts | 178° |
| 2026-04-27 01:26 | -3.80473 | -78.32609 | 37063 ft | 484 kts | 178° |
| 2026-04-27 01:27 | -3.87219 | -78.32281 | 37046 ft | 484 kts | 178° |
| 2026-04-27 01:27 | -3.93958 | -78.31953 | 37043 ft | 484 kts | 178° |
| 2026-04-27 01:28 | -4.00699 | -78.31625 | 37030 ft | 485 kts | 178° |
| 2026-04-27 01:28 | -4.07393 | -78.31299 | 37026 ft | 485 kts | 178° |
| 2026-04-27 01:29 | -4.14142 | -78.30971 | 37023 ft | 485 kts | 178° |
| 2026-04-27 01:29 | -4.20877 | -78.30643 | 37019 ft | 485 kts | 178° |
| 2026-04-27 01:30 | -4.27620 | -78.30314 | 37013 ft | 485 kts | 178° |
| 2026-04-27 01:30 | -4.34369 | -78.29986 | 36997 ft | 485 kts | 178° |
| 2026-04-27 01:31 | -4.41111 | -78.29657 | 36996 ft | 485 kts | 178° |
| 2026-04-27 01:31 | -4.47854 | -78.29329 | 36994 ft | 485 kts | 178° |
| 2026-04-27 01:32 | -4.54567 | -78.29002 | 36993 ft | 485 kts | 178° |
| 2026-04-27 01:32 | -4.61316 | -78.28673 | 36992 ft | 486 kts | 178° |
| 2026-04-27 01:33 | -4.68070 | -78.28344 | 36990 ft | 485 kts | 178° |
| 2026-04-27 01:33 | -4.74827 | -78.28014 | 36985 ft | 485 kts | 178° |
| 2026-04-27 01:34 | -4.81574 | -78.27685 | 36983 ft | 485 kts | 178° |
| 2026-04-27 01:34 | -4.88322 | -78.27356 | 36984 ft | 485 kts | 178° |
| 2026-04-27 01:35 | -4.95021 | -78.27029 | 36987 ft | 484 kts | 178° |
| 2026-04-27 01:35 | -5.01747 | -78.26701 | 36997 ft | 483 kts | 178° |
| 2026-04-27 01:36 | -5.08460 | -78.26373 | 37006 ft | 483 kts | 178° |
| 2026-04-27 01:36 | -5.15177 | -78.26045 | 36998 ft | 482 kts | 178° |
| 2026-04-27 01:37 | -5.21870 | -78.25718 | 37014 ft | 481 kts | 178° |
| 2026-04-27 01:37 | -5.28559 | -78.25392 | 37022 ft | 480 kts | 178° |
| 2026-04-27 01:38 | -5.35241 | -78.25065 | 37032 ft | 480 kts | 178° |
| 2026-04-27 01:38 | -5.41874 | -78.24741 | 37033 ft | 480 kts | 178° |
| 2026-04-27 01:39 | -5.48538 | -78.24416 | 37042 ft | 479 kts | 178° |
| 2026-04-27 01:39 | -5.55194 | -78.24090 | 37043 ft | 478 kts | 178° |
| 2026-04-27 01:40 | -5.61844 | -78.23765 | 37042 ft | 478 kts | 178° |
| 2026-04-27 01:40 | -5.68494 | -78.23440 | 37053 ft | 478 kts | 178° |
| 2026-04-27 01:41 | -5.75141 | -78.23115 | 37064 ft | 478 kts | 178° |
| 2026-04-27 01:41 | -5.81797 | -78.22789 | 37056 ft | 478 kts | 178° |
| 2026-04-27 01:42 | -5.88421 | -78.22465 | 37055 ft | 478 kts | 178° |
| 2026-04-27 01:42 | -5.95040 | -78.22141 | 37055 ft | 478 kts | 178° |
| 2026-04-27 01:43 | -6.01679 | -78.21816 | 37063 ft | 477 kts | 178° |
| 2026-04-27 01:43 | -6.08317 | -78.21491 | 37062 ft | 477 kts | 178° |
| 2026-04-27 01:44 | -6.14964 | -78.21165 | 37067 ft | 478 kts | 178° |
| 2026-04-27 01:44 | -6.21569 | -78.20842 | 37065 ft | 478 kts | 178° |
| 2026-04-27 01:45 | -6.28216 | -78.20516 | 37078 ft | 478 kts | 178° |
| 2026-04-27 01:45 | -6.34868 | -78.20190 | 37086 ft | 479 kts | 178° |
| 2026-04-27 01:46 | -6.41530 | -78.19863 | 37090 ft | 479 kts | 178° |
| 2026-04-27 01:46 | -6.48196 | -78.19536 | 37093 ft | 479 kts | 178° |
| 2026-04-27 01:47 | -6.54871 | -78.19208 | 37095 ft | 480 kts | 178° |
| 2026-04-27 01:47 | -6.61549 | -78.18881 | 37098 ft | 481 kts | 178° |
| 2026-04-27 01:48 | -6.68242 | -78.18552 | 37104 ft | 481 kts | 178° |
| 2026-04-27 01:48 | -6.74930 | -78.18224 | 37103 ft | 481 kts | 178° |
| 2026-04-27 01:49 | -6.81575 | -78.17898 | 37106 ft | 481 kts | 178° |
| 2026-04-27 01:49 | -6.88264 | -78.17570 | 37102 ft | 481 kts | 178° |
| 2026-04-27 01:50 | -6.94956 | -78.17241 | 37101 ft | 481 kts | 178° |
| 2026-04-27 01:50 | -7.01642 | -78.16912 | 37091 ft | 481 kts | 178° |
| 2026-04-27 01:51 | -7.08324 | -78.16584 | 37091 ft | 480 kts | 178° |
| 2026-04-27 01:51 | -7.15003 | -78.16256 | 37085 ft | 480 kts | 178° |
| 2026-04-27 01:52 | -7.21628 | -78.15930 | 37091 ft | 480 kts | 178° |
| 2026-04-27 01:52 | -7.28305 | -78.15601 | 37076 ft | 479 kts | 178° |
| 2026-04-27 01:53 | -7.34947 | -78.15275 | 37069 ft | 480 kts | 178° |
| 2026-04-27 01:53 | -7.41633 | -78.14946 | 37073 ft | 480 kts | 178° |
| 2026-04-27 01:54 | -7.48318 | -78.14617 | 37035 ft | 480 kts | 178° |
| 2026-04-27 01:54 | -7.54996 | -78.14288 | 37045 ft | 480 kts | 178° |
| 2026-04-27 01:55 | -7.61619 | -78.13961 | 37045 ft | 480 kts | 178° |
| 2026-04-27 01:55 | -7.68296 | -78.13633 | 37061 ft | 480 kts | 178° |
| 2026-04-27 01:56 | -7.78303 | -78.13140 | 37069 ft | 479 kts | 178° |
| 2026-04-27 01:56 | -7.84931 | -78.12813 | 37096 ft | 479 kts | 178° |
| 2026-04-27 01:57 | -7.91593 | -78.12485 | 37104 ft | 479 kts | 178° |
| 2026-04-27 01:57 | -7.98249 | -78.12156 | 37110 ft | 479 kts | 178° |
| 2026-04-27 01:58 | -8.04903 | -78.11828 | 37123 ft | 478 kts | 178° |
| 2026-04-27 01:58 | -8.11554 | -78.11500 | 37117 ft | 478 kts | 178° |
| 2026-04-27 01:59 | -8.18212 | -78.11171 | 37128 ft | 478 kts | 178° |
| 2026-04-27 01:59 | -8.24866 | -78.10841 | 37124 ft | 478 kts | 178° |
| 2026-04-27 02:00 | -8.31467 | -78.10512 | 37116 ft | 478 kts | 178° |
| 2026-04-27 02:00 | -8.38106 | -78.10181 | 37114 ft | 478 kts | 178° |
| 2026-04-27 02:01 | -8.44753 | -78.09850 | 37112 ft | 478 kts | 178° |
| 2026-04-27 02:01 | -8.51406 | -78.09519 | 37100 ft | 478 kts | 178° |
| 2026-04-27 02:02 | -8.56933 | -78.09244 | 37106 ft | 478 kts | 178° |
| 2026-04-27 02:02 | -8.63581 | -78.08913 | 37109 ft | 478 kts | 178° |
| 2026-04-27 02:03 | -8.70220 | -78.08582 | 37109 ft | 478 kts | 178° |
| 2026-04-27 02:03 | -8.76889 | -78.08250 | 37102 ft | 479 kts | 178° |
| 2026-04-27 02:04 | -8.83507 | -78.07920 | 37096 ft | 479 kts | 178° |
| 2026-04-27 02:04 | -8.90160 | -78.07588 | 37102 ft | 478 kts | 178° |
| 2026-04-27 02:05 | -8.96816 | -78.07256 | 37098 ft | 479 kts | 178° |
| 2026-04-27 02:05 | -9.03467 | -78.06924 | 37099 ft | 479 kts | 178° |
| 2026-04-27 02:06 | -9.10135 | -78.06591 | 37095 ft | 479 kts | 178° |
| 2026-04-27 02:06 | -9.16761 | -78.06260 | 37093 ft | 479 kts | 178° |
| 2026-04-27 02:07 | -9.23474 | -78.05924 | 37087 ft | 479 kts | 178° |
| 2026-04-27 02:07 | -9.30093 | -78.05593 | 37074 ft | 479 kts | 178° |
| 2026-04-27 02:08 | -9.36754 | -78.05260 | 37079 ft | 478 kts | 178° |
| 2026-04-27 02:08 | -9.43412 | -78.04927 | 37065 ft | 479 kts | 178° |
| 2026-04-27 02:09 | -9.50074 | -78.04594 | 37059 ft | 479 kts | 178° |
| 2026-04-27 02:09 | -9.56726 | -78.04260 | 37063 ft | 478 kts | 178° |
| 2026-04-27 02:10 | -9.63377 | -78.03927 | 37045 ft | 477 kts | 178° |
| 2026-04-27 02:10 | -9.69931 | -78.03598 | 37040 ft | 471 kts | 178° |
| 2026-04-27 02:11 | -9.76478 | -78.03270 | 36691 ft | 474 kts | 178° |
| 2026-04-27 02:11 | -9.79769 | -78.03105 | 36307 ft | 469 kts | 178° |
| 2026-04-27 02:11 | -9.83014 | -78.02942 | 35800 ft | 465 kts | 178° |
| 2026-04-27 02:12 | -9.86231 | -78.02781 | 35353 ft | 462 kts | 178° |
| 2026-04-27 02:12 | -9.89437 | -78.02620 | 34866 ft | 459 kts | 178° |
| 2026-04-27 02:12 | -9.92618 | -78.02460 | 34399 ft | 457 kts | 178° |
| 2026-04-27 02:12 | -9.95791 | -78.02301 | 33912 ft | 455 kts | 178° |
| 2026-04-27 02:13 | -9.98942 | -78.02143 | 33406 ft | 452 kts | 178° |
| 2026-04-27 02:13 | -10.02079 | -78.01986 | 32937 ft | 449 kts | 178° |
| 2026-04-27 02:13 | -10.05186 | -78.01830 | 32474 ft | 446 kts | 178° |
| 2026-04-27 02:13 | -10.08243 | -78.01676 | 32025 ft | 444 kts | 177° |
| 2026-04-27 02:14 | -10.11319 | -78.01522 | 31571 ft | 441 kts | 177° |
| 2026-04-27 02:14 | -10.14375 | -78.01368 | 31125 ft | 439 kts | 177° |
| 2026-04-27 02:14 | -10.17421 | -78.01215 | 30672 ft | 437 kts | 176° |
| 2026-04-27 02:14 | -10.20421 | -78.00792 | 30177 ft | 435 kts | 160° |
| 2026-04-27 02:15 | -10.23146 | -77.99504 | 29613 ft | 431 kts | 150° |
| 2026-04-27 02:15 | -10.25801 | -77.98094 | 29070 ft | 429 kts | 152° |
| 2026-04-27 02:15 | -10.28468 | -77.96763 | 28610 ft | 425 kts | 153° |
| 2026-04-27 02:15 | -10.31132 | -77.95468 | 28154 ft | 422 kts | 153° |
| 2026-04-27 02:16 | -10.33771 | -77.94192 | 27711 ft | 418 kts | 153° |
| 2026-04-27 02:16 | -10.36388 | -77.92924 | 27272 ft | 415 kts | 153° |
| 2026-04-27 02:16 | -10.38986 | -77.91659 | 26843 ft | 411 kts | 153° |
| 2026-04-27 02:16 | -10.41531 | -77.90416 | 26410 ft | 408 kts | 153° |
| 2026-04-27 02:17 | -10.44076 | -77.89170 | 25985 ft | 405 kts | 153° |
| 2026-04-27 02:17 | -10.46610 | -77.87927 | 25560 ft | 402 kts | 153° |
| 2026-04-27 02:17 | -10.49120 | -77.86696 | 25143 ft | 399 kts | 153° |
| 2026-04-27 02:17 | -10.51608 | -77.85476 | 24717 ft | 396 kts | 154° |
| 2026-04-27 02:18 | -10.54090 | -77.84259 | 24294 ft | 393 kts | 154° |
| 2026-04-27 02:18 | -10.56547 | -77.83054 | 23859 ft | 392 kts | 154° |
| 2026-04-27 02:18 | -10.58979 | -77.81864 | 23645 ft | 383 kts | 154° |
| 2026-04-27 02:18 | -10.61361 | -77.80699 | 23322 ft | 377 kts | 154° |
| 2026-04-27 02:19 | -10.63714 | -77.79549 | 22949 ft | 373 kts | 154° |
| 2026-04-27 02:19 | -10.66013 | -77.78424 | 22535 ft | 370 kts | 154° |
| 2026-04-27 02:19 | -10.68327 | -77.77292 | 22132 ft | 367 kts | 154° |
| 2026-04-27 02:19 | -10.70621 | -77.76170 | 21723 ft | 365 kts | 154° |
| 2026-04-27 02:20 | -10.72901 | -77.75053 | 21315 ft | 362 kts | 154° |
| 2026-04-27 02:20 | -10.75167 | -77.73943 | 20922 ft | 360 kts | 154° |
| 2026-04-27 02:20 | -10.77419 | -77.72840 | 20522 ft | 358 kts | 153° |
| 2026-04-27 02:20 | -10.79666 | -77.71739 | 20126 ft | 357 kts | 153° |
| 2026-04-27 02:21 | -10.81910 | -77.70639 | 19716 ft | 356 kts | 153° |
| 2026-04-27 02:21 | -10.84140 | -77.69546 | 19315 ft | 355 kts | 153° |
| 2026-04-27 02:21 | -10.86360 | -77.68457 | 18900 ft | 354 kts | 153° |
| 2026-04-27 02:21 | -10.88552 | -77.67383 | 18508 ft | 354 kts | 153° |
| 2026-04-27 02:22 | -10.90769 | -77.66295 | 18070 ft | 353 kts | 153° |
| 2026-04-27 02:22 | -10.92982 | -77.65210 | 17642 ft | 351 kts | 153° |
| 2026-04-27 02:22 | -10.95177 | -77.64133 | 17242 ft | 349 kts | 153° |
| 2026-04-27 02:22 | -10.97356 | -77.63064 | 16844 ft | 347 kts | 153° |
| 2026-04-27 02:23 | -10.99524 | -77.62000 | 16450 ft | 345 kts | 153° |
| 2026-04-27 02:23 | -11.01682 | -77.60941 | 16063 ft | 342 kts | 153° |
| 2026-04-27 02:23 | -11.03823 | -77.59890 | 15677 ft | 340 kts | 154° |
| 2026-04-27 02:23 | -11.05956 | -77.58843 | 15295 ft | 338 kts | 154° |
| 2026-04-27 02:24 | -11.08071 | -77.57804 | 14915 ft | 337 kts | 154° |
| 2026-04-27 02:24 | -11.10153 | -77.56781 | 14533 ft | 335 kts | 154° |
| 2026-04-27 02:24 | -11.12246 | -77.55753 | 14147 ft | 334 kts | 154° |
| 2026-04-27 02:24 | -11.14342 | -77.54723 | 13754 ft | 333 kts | 154° |
| 2026-04-27 02:25 | -11.16424 | -77.53700 | 13336 ft | 331 kts | 154° |
| 2026-04-27 02:25 | -11.18491 | -77.52684 | 12945 ft | 329 kts | 154° |
| 2026-04-27 02:25 | -11.20547 | -77.51674 | 12567 ft | 326 kts | 154° |
| 2026-04-27 02:25 | -11.22562 | -77.50683 | 12431 ft | 316 kts | 154° |
| 2026-04-27 02:26 | -11.24514 | -77.49724 | 12262 ft | 308 kts | 154° |
| 2026-04-27 02:26 | -11.26446 | -77.48796 | 11921 ft | 306 kts | 155° |
| 2026-04-27 02:26 | -11.28377 | -77.47889 | 11596 ft | 304 kts | 155° |
| 2026-04-27 02:26 | -11.30292 | -77.46992 | 11274 ft | 302 kts | 155° |
| 2026-04-27 02:27 | -11.32180 | -77.46108 | 10952 ft | 301 kts | 155° |
| 2026-04-27 02:27 | -11.34082 | -77.45215 | 10614 ft | 300 kts | 155° |
| 2026-04-27 02:27 | -11.35974 | -77.44326 | 10304 ft | 299 kts | 155° |
| 2026-04-27 02:27 | -11.37840 | -77.43449 | 10139 ft | 291 kts | 155° |
| 2026-04-27 02:28 | -11.39664 | -77.42590 | 9963 ft | 285 kts | 155° |
| 2026-04-27 02:28 | -11.41469 | -77.41740 | 9636 ft | 285 kts | 155° |
| 2026-04-27 02:28 | -11.43236 | -77.40908 | 9337 ft | 283 kts | 155° |
| 2026-04-27 02:28 | -11.45022 | -77.40066 | 9036 ft | 282 kts | 155° |
| 2026-04-27 02:29 | -11.46797 | -77.39229 | 8734 ft | 280 kts | 155° |
| 2026-04-27 02:29 | -11.48561 | -77.38398 | 8436 ft | 278 kts | 155° |
| 2026-04-27 02:29 | -11.50318 | -77.37569 | 8141 ft | 277 kts | 155° |
| 2026-04-27 02:29 | -11.52069 | -77.36743 | 7845 ft | 276 kts | 155° |
| 2026-04-27 02:30 | -11.53785 | -77.35934 | 7552 ft | 275 kts | 155° |
| 2026-04-27 02:30 | -11.55543 | -77.35104 | 7257 ft | 274 kts | 155° |
| 2026-04-27 02:30 | -11.57274 | -77.34288 | 6965 ft | 273 kts | 155° |
| 2026-04-27 02:30 | -11.58993 | -77.33476 | 6676 ft | 272 kts | 155° |
| 2026-04-27 02:31 | -11.60707 | -77.32668 | 6478 ft | 268 kts | 155° |
| 2026-04-27 02:31 | -11.62359 | -77.31889 | 6321 ft | 261 kts | 155° |
| 2026-04-27 02:31 | -11.64001 | -77.31114 | 6062 ft | 260 kts | 155° |
| 2026-04-27 02:31 | -11.65642 | -77.30340 | 5799 ft | 258 kts | 155° |
| 2026-04-27 02:32 | -11.67271 | -77.29570 | 5530 ft | 257 kts | 155° |
| 2026-04-27 02:32 | -11.68895 | -77.28804 | 5266 ft | 256 kts | 155° |
| 2026-04-27 02:32 | -11.70507 | -77.28042 | 5003 ft | 255 kts | 155° |
| 2026-04-27 02:32 | -11.72117 | -77.27282 | 4749 ft | 254 kts | 155° |
| 2026-04-27 02:33 | -11.73686 | -77.26541 | 4601 ft | 248 kts | 155° |
| 2026-04-27 02:33 | -11.75233 | -77.25810 | 4471 ft | 241 kts | 155° |
| 2026-04-27 02:33 | -11.76733 | -77.25101 | 4361 ft | 233 kts | 155° |
| 2026-04-27 02:33 | -11.78186 | -77.24415 | 4257 ft | 226 kts | 155° |
| 2026-04-27 02:34 | -11.79599 | -77.23748 | 4087 ft | 222 kts | 155° |
| 2026-04-27 02:34 | -11.80958 | -77.23009 | 4034 ft | 222 kts | 146° |
| 2026-04-27 02:34 | -11.82213 | -77.22109 | 4015 ft | 215 kts | 144° |
| 2026-04-27 02:34 | -11.83372 | -77.21261 | 4026 ft | 200 kts | 144° |
| 2026-04-27 02:35 | -11.84486 | -77.20456 | 3872 ft | 192 kts | 145° |
| 2026-04-27 02:35 | -11.85578 | -77.19728 | 3713 ft | 179 kts | 151° |
| 2026-04-27 02:35 | -11.86644 | -77.19160 | 3490 ft | 166 kts | 153° |
| 2026-04-27 02:35 | -11.87620 | -77.18670 | 3220 ft | 153 kts | 154° |
| 2026-04-27 02:36 | -11.88586 | -77.18190 | 2758 ft | 153 kts | 154° |
| 2026-04-27 02:36 | -11.89528 | -77.17722 | 2514 ft | 149 kts | 154° |
| 2026-04-27 02:36 | -11.90467 | -77.17256 | 2318 ft | 151 kts | 154° |
| 2026-04-27 02:36 | -11.91418 | -77.16784 | 2111 ft | 152 kts | 154° |
| 2026-04-27 02:37 | -11.92363 | -77.16315 | 1906 ft | 150 kts | 154° |
| 2026-04-27 02:37 | -11.93283 | -77.15858 | 1720 ft | 148 kts | 154° |
| 2026-04-27 02:37 | -11.94207 | -77.15398 | 1526 ft | 147 kts | 154° |
| 2026-04-27 02:37 | -11.95130 | -77.14941 | 1327 ft | 146 kts | 154° |
| 2026-04-27 02:38 | -11.96032 | -77.14494 | 1134 ft | 142 kts | 154° |
| 2026-04-27 02:38 | -11.96908 | -77.14058 | 956 ft | 142 kts | 154° |
| 2026-04-27 02:38 | -11.97773 | -77.13628 | 754 ft | 136 kts | 154° |
| 2026-04-27 02:38 | -11.98639 | -77.13201 | 576 ft | 141 kts | 154° |
| 2026-04-27 02:39 | -11.99523 | -77.12763 | 369 ft | 142 kts | 153° |
| 2026-04-27 02:39 | -12.00399 | -77.12315 | 194 ft | 139 kts | 154° |
| 2026-04-27 02:39 | -12.01255 | -77.11893 | 63 ft | 131 kts | 154° |
| 2026-04-27 02:39 | -12.01987 | -77.11526 | 63 ft | 102 kts | 155° |
| 2026-04-27 02:40 | -12.02435 | -77.11309 | 86 ft | 49 kts | 155° |
| 2026-04-27 02:40 | -12.02629 | -77.11215 | 92 ft | 22 kts | 154° |
| 2026-04-27 02:40 | -12.02734 | -77.11163 | 97 ft | 16 kts | 154° |
| 2026-04-27 02:40 | -12.02836 | -77.11112 | 99 ft | 18 kts | 154° |
| 2026-04-27 02:41 | -12.02980 | -77.11043 | 103 ft | 27 kts | 153° |
| 2026-04-27 02:41 | -12.03136 | -77.10965 | 107 ft | 24 kts | 158° |
| 2026-04-27 02:41 | -12.03304 | -77.10880 | 112 ft | 27 kts | 153° |
| 2026-04-27 02:41 | -12.03469 | -77.10801 | 117 ft | 25 kts | 154° |
| 2026-04-27 02:42 | -12.03577 | -77.10750 | 120 ft | 10 kts | 168° |
| 2026-04-27 02:42 | -12.03631 | -77.10790 | 117 ft | 10 kts | 226° |
| 2026-04-27 02:42 | -12.03658 | -77.10862 | 116 ft | 12 kts | 273° |
| 2026-04-27 02:42 | -12.03593 | -77.10916 | 112 ft | 13 kts | 339° |
| 2026-04-27 02:43 | -12.03501 | -77.10959 | 109 ft | 16 kts | 334° |
| 2026-04-27 02:43 | -12.03396 | -77.11013 | 103 ft | 19 kts | 330° |
| 2026-04-27 02:43 | -12.03273 | -77.11073 | 98 ft | 20 kts | 329° |
| 2026-04-27 02:43 | -12.03154 | -77.11136 | 97 ft | 19 kts | 327° |
| 2026-04-27 02:44 | -12.03027 | -77.11195 | 91 ft | 20 kts | 334° |
| 2026-04-27 02:44 | -12.02899 | -77.11258 | 88 ft | 21 kts | 334° |
| 2026-04-27 02:44 | -12.02769 | -77.11322 | 86 ft | 20 kts | 334° |
| 2026-04-27 02:44 | -12.02645 | -77.11384 | 82 ft | 20 kts | 335° |
| 2026-04-27 02:45 | -12.02522 | -77.11443 | 82 ft | 19 kts | 334° |
| 2026-04-27 02:45 | -12.02402 | -77.11503 | 76 ft | 19 kts | 335° |
| 2026-04-27 02:45 | -12.02283 | -77.11561 | 67 ft | 19 kts | 334° |
| 2026-04-27 02:45 | -12.02165 | -77.11619 | 73 ft | 20 kts | 334° |
| 2026-04-27 02:46 | -12.02040 | -77.11681 | 68 ft | 19 kts | 334° |
| 2026-04-27 02:46 | -12.01935 | -77.11732 | 66 ft | 10 kts | 334° |
| 2026-04-27 02:46 | -12.01922 | -77.11794 | 62 ft | 11 kts | 246° |
| 2026-04-27 02:46 | -12.01956 | -77.11866 | 64 ft | 12 kts | 244° |
| 2026-04-27 02:47 | -12.01991 | -77.11940 | 63 ft | 11 kts | 243° |
| 2026-04-27 02:47 | -12.02024 | -77.12011 | 61 ft | 11 kts | 245° |
| 2026-04-27 02:47 | -12.02058 | -77.12084 | 60 ft | 12 kts | 241° |
| 2026-04-27 02:47 | -12.02084 | -77.12136 | 55 ft | 13 kts | 244° |
| 2026-04-27 02:48 | -12.02129 | -77.12230 | 55 ft | 16 kts | 243° |
| 2026-04-27 02:48 | -12.02176 | -77.12329 | 48 ft | 9 kts | 244° |
| 2026-04-27 02:48 | -12.02234 | -77.12348 | 52 ft | 10 kts | 156° |
| 2026-04-27 02:48 | -12.02296 | -77.12320 | 53 ft | 10 kts | 156° |
| 2026-04-27 02:49 | -12.02357 | -77.12291 | 58 ft | 9 kts | 154° |
| 2026-04-27 02:49 | -12.02415 | -77.12259 | 62 ft | 9 kts | 150° |
| 2026-04-27 02:49 | -12.02473 | -77.12233 | 58 ft | 9 kts | 155° |
| 2026-04-27 02:49 | -12.02528 | -77.12206 | 63 ft | 9 kts | 154° |
| 2026-04-27 02:50 | -12.02582 | -77.12179 | 62 ft | 8 kts | 153° |
| 2026-04-27 02:50 | -12.02634 | -77.12153 | 59 ft | 8 kts | 155° |
| 2026-04-27 02:50 | -12.02686 | -77.12129 | 67 ft | 8 kts | 154° |
| 2026-04-27 02:50 | -12.02736 | -77.12104 | 67 ft | 8 kts | 154° |
| 2026-04-27 02:51 | -12.02795 | -77.12075 | 70 ft | 11 kts | 155° |
| 2026-04-27 02:51 | -12.02882 | -77.12032 | 64 ft | 14 kts | 154° |
| 2026-04-27 02:51 | -12.02970 | -77.11988 | 71 ft | 14 kts | 153° |
| 2026-04-27 02:51 | -12.03030 | -77.11958 | 70 ft | 5 kts | 142° |
| 2026-04-27 02:52 | -12.03029 | -77.11924 | 72 ft | 5 kts | 67° |
| 2026-04-27 02:52 | -12.03019 | -77.11902 | 84 ft | 0 kts | 66° |